LIPZ/VCE METAR and TAF weather

Enter ICAO airport designator
Station Type Date Time Source
LIPZ METAR 2024/04/15 09:20 UTC NOAA

LIPZ 150920Z 29003KT 230V010 CAVOK 21/15 Q1013 NOSIG


Station Type Date Time Source
LIPZ Decoded METAR 2024/04/15 09:20 UTC NOAA

Venezia / Tessera, Italy (LIPZ) 45-30N 012-20E 6M
Apr 15, 2024 - 05:20 AM EDT / 2024.04.15 0920 UTC
Wind: from the WNW (290 degrees) at 3 MPH (3 KT) (direction variable):0
Visibility: greater than 7 mile(s):0
Temperature: 69 F (21 C)
Dew Point: 59 F (15 C)
Relative Humidity: 68%
Pressure (altimeter): 29.91 in. Hg (1013 hPa)
ob: LIPZ 150920Z 29003KT 230V010 CAVOK 21/15 Q1013 NOSIG
cycle: 9

Station Type Date Time Source
LIPZ TAF 2024/04/15 06:21 UTC NOAA